Aérodrome :
LOGIN :

S'inscrire | Disclaimer

   EN    FR    IT 

 










Légende :    VFR   VFR Marginal   IFR   IFR Intensif   IFR Très Intensif
Visi : 
Plafond : 
>= 8 km
>= 3000ft
5 à 8 km
1000 à 3000 ft
1500m à 5 km
500 à 1000 ft
800 à 1500m
200 à 500 ft
< 800m
< 200 ft
Symboles :   Orages  Brouillard  Fortes neiges  Fortes précipitations  Vent > 20 kt
SIGMETs :   Divers  Orages  Givrage  Turbulence  Onde Orograph.  Cendres Volcan.






- Altitude de l'aérodrome : 1058 ft
- Code IATA : SCN


EDDR - Saarbrücken

DERNIER METAR :
  • 122050Z 31004KT CAVOK 17/11 Q1024

METARs EXPIRÉS :
  • 122020Z 31006KT 280V340 CAVOK 18/11 Q1023 NOSIG
  • 121950Z 32004KT 280V350 CAVOK 18/11 Q1023 NOSIG
  • 121920Z 30006KT CAVOK 19/11 Q1023 NOSIG
  • 121850Z 30008KT 9999 FEW046 21/12 Q1023 NOSIG
  • 121820Z 32007KT 290V350 9999 FEW042 21/12 Q1022 NOSIG

TAF TAF EDDR
Valide du 12 à 18h jusqu'au 13 à 18h UTC


121700Z 1218/1318 30010KT CAVOK
BECMG 1218/1221 34004KT
BECMG 1306/1308 04006KT



MET'MAP, la Météo Aéronautique d'un coup d'oeil ! - Copyright ORBIFLY Décembre 2007 - Disclaimer

ORBIFLY MET'MAP TEAM :

Programmation & Développement : Alexandra Zaïnal
Sur une idée originale de : Baudouin d'Aumeries
Assistance à la programmation : Marc-Olivier Méhu
Soutien technique & logistique : Manuel Goepfert

Contact : metmap@orbifly.com




SOURCES & CREDITS :

   NOAA